createdAt,value
2023-02-22T00:01:50.779Z,59.64
2023-02-22T00:03:55.479Z,59.71
2023-02-22T00:05:59.838Z,59.62
2023-02-22T00:08:02.371Z,59.73
2023-02-22T00:10:09.117Z,59.79
2023-02-22T00:12:11.768Z,59.74
2023-02-22T00:14:14.338Z,59.56
2023-02-22T00:16:18.521Z,59.53
2023-02-22T00:18:21.141Z,59.45
2023-02-22T00:20:25.060Z,59.20
2023-02-22T00:22:27.672Z,59.19
2023-02-22T00:24:31.367Z,59.27
2023-02-22T00:26:34.683Z,59.71
2023-02-22T00:28:37.955Z,59.99
2023-02-22T00:30:43.554Z,60.21
2023-02-22T00:32:47.005Z,60.34
2023-02-22T00:34:53.059Z,60.57
2023-02-22T00:36:57.006Z,60.34
2023-02-22T00:38:59.536Z,60.08
2023-02-22T00:41:02.142Z,60.10
2023-02-22T00:43:07.017Z,60.00
2023-02-22T00:45:10.165Z,59.96
2023-02-22T00:47:12.733Z,59.72
2023-02-22T00:49:15.296Z,59.34
2023-02-22T00:51:18.239Z,58.77
2023-02-22T00:53:23.351Z,58.79
2023-02-22T00:55:27.585Z,58.87
2023-02-22T00:57:30.160Z,59.08
2023-02-22T00:59:32.732Z,59.46
2023-02-22T01:01:35.408Z,59.14
2023-02-22T01:03:41.245Z,59.19
2023-02-22T01:05:44.523Z,59.33
2023-02-22T01:07:47.778Z,59.38
2023-02-22T01:09:51.682Z,59.44
2023-02-22T01:11:56.215Z,59.74
2023-02-22T01:13:59.929Z,59.69
2023-02-22T01:16:03.192Z,59.74
2023-02-22T01:18:06.522Z,60.62
2023-02-22T01:20:12.692Z,60.82
2023-02-22T01:22:15.269Z,60.47
2023-02-22T01:24:18.979Z,60.60
2023-02-22T01:26:22.948Z,61.05
2023-02-22T01:28:25.895Z,60.74
2023-02-22T01:30:31.076Z,60.99
2023-02-22T01:32:36.980Z,60.44
2023-02-22T01:34:40.079Z,60.83
2023-02-22T01:36:42.876Z,60.87
2023-02-22T01:38:46.040Z,60.60
2023-02-22T01:40:50.631Z,60.18
2023-02-22T01:42:57.722Z,60.36
2023-02-22T01:45:52.120Z,60.78
2023-02-22T01:47:55.531Z,60.89
2023-02-22T01:49:58.178Z,61.08
2023-02-22T01:52:03.748Z,61.19
2023-02-22T01:54:13.583Z,61.09
2023-02-22T01:56:17.033Z,61.13
2023-02-22T01:58:23.019Z,60.96
2023-02-22T02:00:27.659Z,60.86
2023-02-22T02:02:30.413Z,60.82
2023-02-22T02:04:35.252Z,60.99
2023-02-22T02:06:38.638Z,60.76
2023-02-22T02:08:49.882Z,60.60
2023-02-22T02:10:54.474Z,60.43
2023-02-22T02:12:59.260Z,60.12
2023-02-22T02:15:18.823Z,60.29
2023-02-22T02:17:23.937Z,60.07
2023-02-22T02:19:36.866Z,60.14
2023-02-22T02:22:14.151Z,59.76
2023-02-22T02:25:08.642Z,59.75
2023-02-22T02:27:18.136Z,59.86
2023-02-22T02:29:48.368Z,59.84
2023-02-22T02:32:21.112Z,59.86
2023-02-22T02:34:31.866Z,59.46
2023-02-22T02:36:44.648Z,59.76
2023-02-22T02:38:51.749Z,59.45
2023-02-22T02:41:04.428Z,59.59
2023-02-22T02:43:13.346Z,59.61
2023-02-22T02:45:20.184Z,59.69
2023-02-22T02:47:28.852Z,59.68
2023-02-22T02:49:36.560Z,59.77
2023-02-22T02:51:42.811Z,59.45
2023-02-22T02:53:51.215Z,59.51
2023-02-22T02:55:53.849Z,59.55
2023-02-22T02:57:56.735Z,59.63
2023-02-22T02:59:59.349Z,59.94
2023-02-22T03:02:15.323Z,60.20
2023-02-22T03:04:28.684Z,60.07
2023-02-22T03:06:51.074Z,60.25
2023-02-22T03:09:02.384Z,60.13
2023-02-22T03:11:15.128Z,60.05
2023-02-22T03:13:26.490Z,60.40
2023-02-22T03:15:43.582Z,60.33
2023-02-22T03:17:54.173Z,60.29
2023-02-22T03:20:02.721Z,60.52
2023-02-22T03:22:14.050Z,60.65
2023-02-22T03:24:23.040Z,60.98
2023-02-22T03:26:32.752Z,60.96
2023-02-22T03:28:41.086Z,60.79
2023-02-22T03:30:49.216Z,61.02
2023-02-22T03:32:57.070Z,61.30
2023-02-22T03:35:06.691Z,61.17
2023-02-22T03:37:15.877Z,60.99
2023-02-22T03:39:20.412Z,60.90
2023-02-22T03:41:26.155Z,61.51
2023-02-22T03:43:33.819Z,61.89
2023-02-22T03:45:38.302Z,62.43
2023-02-22T03:47:44.502Z,63.20
2023-02-22T03:49:53.083Z,63.07
2023-02-22T03:51:57.357Z,63.42
2023-02-22T03:54:00.416Z,63.47
2023-02-22T03:56:07.189Z,63.58
2023-02-22T03:58:13.178Z,64.05
2023-02-22T04:00:21.430Z,64.18
2023-02-22T04:02:24.036Z,64.31
2023-02-22T04:04:27.368Z,64.92
2023-02-22T04:06:30.518Z,64.87
2023-02-22T04:08:35.191Z,64.62
2023-02-22T04:10:38.474Z,64.09
2023-02-22T04:12:41.067Z,64.00
2023-02-22T04:14:43.643Z,63.62
2023-02-22T04:16:46.247Z,63.45
2023-02-22T04:18:48.817Z,63.07
2023-02-22T04:20:51.677Z,62.92
2023-02-22T04:22:55.300Z,62.97
2023-02-22T04:24:59.263Z,62.99
2023-02-22T04:27:01.846Z,62.86
2023-02-22T04:29:04.761Z,62.39
2023-02-22T04:31:07.443Z,62.70
2023-02-22T04:33:10.651Z,62.43
2023-02-22T04:35:13.605Z,62.47
2023-02-22T04:37:16.276Z,62.62
2023-02-22T04:39:19.014Z,62.32
2023-02-22T04:41:25.239Z,62.13
2023-02-22T04:43:28.167Z,62.06
2023-02-22T04:45:30.798Z,62.01
2023-02-22T04:47:33.360Z,62.43
2023-02-22T04:49:38.672Z,63.07
2023-02-22T04:51:42.475Z,63.44
2023-02-22T04:53:45.151Z,63.89
2023-02-22T04:55:47.729Z,63.68
2023-02-22T04:57:51.829Z,63.66
2023-02-22T04:59:54.608Z,63.62
2023-02-22T05:01:57.230Z,63.20
2023-02-22T05:03:59.809Z,63.13
2023-02-22T05:06:02.409Z,62.89
2023-02-22T05:08:08.048Z,62.85
2023-02-22T05:10:11.266Z,62.39
2023-02-22T05:12:13.941Z,62.45
2023-02-22T05:14:18.007Z,62.63
2023-02-22T05:16:20.684Z,62.88
2023-02-22T05:18:23.396Z,63.06
2023-02-22T05:20:30.534Z,62.93
2023-02-22T05:22:33.192Z,63.06
2023-02-22T05:24:35.809Z,62.81
2023-02-22T05:26:38.368Z,62.69
2023-02-22T05:28:41.034Z,62.65
2023-02-22T05:30:45.336Z,62.56
2023-02-22T05:32:47.983Z,62.72
2023-02-22T05:34:50.596Z,62.89
2023-02-22T05:36:53.202Z,63.19
2023-02-22T05:38:55.938Z,63.19
2023-02-22T05:40:58.601Z,63.27
2023-02-22T05:43:02.173Z,63.48
2023-02-22T05:45:05.159Z,63.15
2023-02-22T05:47:09.079Z,63.05
2023-02-22T05:49:11.698Z,63.06
2023-02-22T05:51:14.496Z,63.57
2023-02-22T05:53:17.152Z,63.85
2023-02-22T05:55:22.253Z,63.62
2023-02-22T05:57:24.848Z,63.87
2023-02-22T05:59:27.959Z,63.67
2023-02-22T06:01:30.543Z,63.73
2023-02-22T06:03:34.443Z,63.47
2023-02-22T06:05:37.839Z,63.50
2023-02-22T06:07:40.431Z,63.43
2023-02-22T06:09:43.133Z,63.08
2023-02-22T06:11:45.739Z,63.36
2023-02-22T06:13:52.450Z,63.37
2023-02-22T06:15:55.072Z,63.14
2023-02-22T06:17:58.787Z,63.35
2023-02-22T06:20:02.865Z,63.69
2023-02-22T06:22:05.449Z,63.42
2023-02-22T06:24:08.277Z,63.48
2023-02-22T06:26:10.885Z,63.40
2023-02-22T06:28:13.457Z,63.22
2023-02-22T06:30:18.649Z,63.42
2023-02-22T06:32:21.269Z,63.80
2023-02-22T06:34:23.845Z,63.89
2023-02-22T06:36:27.823Z,63.83
2023-02-22T06:38:30.418Z,63.70
2023-02-22T06:40:33.075Z,64.12
2023-02-22T06:42:35.648Z,64.13
2023-02-22T06:44:38.188Z,63.51
2023-02-22T06:46:40.794Z,63.56
2023-02-22T06:48:43.372Z,63.71
2023-02-22T06:50:45.958Z,63.69
2023-02-22T06:52:49.896Z,63.75
2023-02-22T06:54:52.823Z,63.69
2023-02-22T06:56:55.394Z,63.64
2023-02-22T06:58:58.074Z,63.95
2023-02-22T07:01:02.806Z,64.24
2023-02-22T07:03:05.796Z,64.23
2023-02-22T07:05:08.887Z,64.01
2023-02-22T07:07:11.510Z,64.29
2023-02-22T07:09:16.430Z,64.20
2023-02-22T07:11:19.397Z,64.20
2023-02-22T07:13:22.035Z,64.25
2023-02-22T07:15:26.477Z,64.24
2023-02-22T07:17:29.022Z,64.38
2023-02-22T07:19:31.614Z,64.33
2023-02-22T07:21:34.200Z,64.53
2023-02-22T07:23:36.785Z,64.30
2023-02-22T07:25:40.685Z,64.89
2023-02-22T07:27:43.628Z,64.85
2023-02-22T07:29:46.773Z,64.74
2023-02-22T07:31:49.622Z,64.18
2023-02-22T07:33:52.464Z,64.38
2023-02-22T07:35:55.044Z,64.50
2023-02-22T07:37:57.991Z,64.42
2023-02-22T07:40:00.592Z,64.38
2023-02-22T07:42:04.840Z,64.27
2023-02-22T07:44:07.449Z,63.74
2023-02-22T07:46:10.075Z,63.75
2023-02-22T07:48:14.338Z,63.94
2023-02-22T07:50:20.330Z,62.91
2023-02-22T07:52:22.908Z,63.15
2023-02-22T07:54:25.478Z,62.90
2023-02-22T07:56:28.101Z,62.73
2023-02-22T07:58:33.049Z,62.13
2023-02-22T08:00:37.533Z,62.86
2023-02-22T08:02:40.179Z,63.16
2023-02-22T08:04:42.776Z,63.15
2023-02-22T08:06:46.286Z,63.65
2023-02-22T08:08:48.844Z,63.84
2023-02-22T08:10:52.850Z,64.32
2023-02-22T08:12:56.180Z,64.04
2023-02-22T08:15:00.357Z,64.21
2023-02-22T08:17:02.978Z,63.95
2023-02-22T08:19:05.634Z,63.90
2023-02-22T08:21:08.278Z,63.97
2023-02-22T08:23:12.355Z,64.14
2023-02-22T08:25:16.535Z,64.63
2023-02-22T08:27:23.355Z,64.76
2023-02-22T08:29:33.315Z,65.08
2023-02-22T08:31:37.372Z,65.08
2023-02-22T08:33:39.963Z,65.14
2023-02-22T08:35:42.867Z,65.20
2023-02-22T08:37:46.533Z,65.37
2023-02-22T08:39:49.207Z,65.31
2023-02-22T08:41:51.820Z,65.27
2023-02-22T08:43:54.544Z,64.54
2023-02-22T08:45:57.920Z,64.03
2023-02-22T08:48:01.951Z,64.52
2023-02-22T08:50:05.053Z,64.53
2023-02-22T08:52:07.633Z,64.60
2023-02-22T08:54:10.268Z,64.90
2023-02-22T08:56:12.919Z,63.68
2023-02-22T08:58:15.640Z,63.85
2023-02-22T09:00:19.516Z,64.30
2023-02-22T09:02:23.233Z,64.30
2023-02-22T09:04:27.392Z,64.23
2023-02-22T09:06:30.593Z,63.86
2023-02-22T09:08:33.139Z,64.05
2023-02-22T09:10:36.535Z,64.32
2023-02-22T09:12:39.205Z,64.59
2023-02-22T09:14:42.994Z,64.57
2023-02-22T09:16:46.265Z,64.81
2023-02-22T09:18:48.884Z,65.08
2023-02-22T09:20:53.348Z,65.35
2023-02-22T09:22:56.279Z,65.22
2023-02-22T09:25:02.643Z,65.12
2023-02-22T09:27:12.138Z,63.74
2023-02-22T09:29:15.040Z,63.90
2023-02-22T09:31:18.044Z,63.97
2023-02-22T09:33:21.991Z,64.30
2023-02-22T09:35:27.020Z,64.55
2023-02-22T09:37:31.280Z,64.39
2023-02-22T09:39:37.585Z,63.01
2023-02-22T09:41:50.035Z,63.58
2023-02-22T09:44:02.216Z,63.41
2023-02-22T09:46:20.220Z,63.61
2023-02-22T09:48:25.351Z,62.21
2023-02-22T09:50:35.605Z,62.05
2023-02-22T09:52:44.840Z,62.51
2023-02-22T09:54:52.070Z,62.49
2023-02-22T09:56:58.973Z,62.40
2023-02-22T09:59:04.663Z,62.51
2023-02-22T10:01:20.590Z,62.55
2023-02-22T10:03:29.190Z,62.69
2023-02-22T10:05:37.626Z,63.05
2023-02-22T10:07:48.085Z,62.50
2023-02-22T10:09:51.262Z,62.42
2023-02-22T10:11:59.986Z,62.34
2023-02-22T10:14:15.546Z,62.13
2023-02-22T10:16:24.931Z,61.65
2023-02-22T10:19:00.185Z,61.25
2023-02-22T10:21:10.743Z,60.62
2023-02-22T10:23:25.981Z,60.70
2023-02-22T10:25:34.971Z,60.89
2023-02-22T10:27:41.210Z,60.25
2023-02-22T10:29:47.972Z,60.06
2023-02-22T10:31:55.586Z,59.81
2023-02-22T10:34:01.601Z,59.37
2023-02-22T10:36:05.032Z,59.84
2023-02-22T10:38:17.610Z,58.56
2023-02-22T10:40:23.029Z,58.61
2023-02-22T10:42:28.935Z,58.60
2023-02-22T10:44:31.504Z,58.77
2023-02-22T10:46:35.275Z,58.87
2023-02-22T10:48:41.185Z,57.77
2023-02-22T10:50:45.964Z,58.78
2023-02-22T10:52:48.998Z,58.97
2023-02-22T10:55:01.027Z,59.11
2023-02-22T10:57:09.410Z,58.71
2023-02-22T10:59:12.600Z,58.03
2023-02-22T11:01:27.596Z,57.16
2023-02-22T11:03:30.698Z,56.78
2023-02-22T11:05:37.198Z,56.90
2023-02-22T11:07:42.626Z,57.49
2023-02-22T11:09:53.276Z,57.43
2023-02-22T11:12:11.600Z,57.49
2023-02-22T11:14:25.499Z,57.71
2023-02-22T11:16:34.192Z,56.87
2023-02-22T11:18:39.991Z,56.88
2023-02-22T11:20:42.615Z,55.96
2023-02-22T11:22:48.228Z,56.32
2023-02-22T11:24:58.056Z,56.64
2023-02-22T11:27:03.556Z,56.94
2023-02-22T11:29:18.839Z,57.07
2023-02-22T11:31:23.831Z,57.41
2023-02-22T11:33:29.354Z,56.95
2023-02-22T11:35:37.026Z,56.92
2023-02-22T11:37:39.662Z,57.05
2023-02-22T11:39:43.855Z,56.89
2023-02-22T11:41:49.250Z,56.58
2023-02-22T11:43:54.346Z,56.34
2023-02-22T11:46:04.687Z,56.44
2023-02-22T11:48:09.154Z,56.51
2023-02-22T11:50:22.179Z,56.27
2023-02-22T11:52:31.099Z,55.84
2023-02-22T11:54:46.805Z,55.87
2023-02-22T11:56:51.416Z,55.89
2023-02-22T11:59:02.730Z,56.10
2023-02-22T12:01:17.445Z,56.25
2023-02-22T12:03:32.884Z,55.70
2023-02-22T12:06:00.649Z,55.07
2023-02-22T12:08:19.850Z,54.91
2023-02-22T12:10:35.040Z,55.08
2023-02-22T12:12:48.181Z,54.41
2023-02-22T12:15:00.962Z,54.59
2023-02-22T12:17:20.439Z,55.25
2023-02-22T12:19:30.425Z,55.02
2023-02-22T12:21:37.253Z,55.12
2023-02-22T12:23:45.767Z,55.77
2023-02-22T12:25:58.567Z,55.32
2023-02-22T12:28:23.670Z,55.05
2023-02-22T12:30:30.235Z,54.80
2023-02-22T12:32:41.699Z,54.88
2023-02-22T12:34:48.973Z,54.95
2023-02-22T12:36:56.627Z,54.05
2023-02-22T12:39:07.469Z,54.08
2023-02-22T12:41:18.410Z,53.36
2023-02-22T12:43:26.486Z,53.10
2023-02-22T12:45:36.872Z,53.10
2023-02-22T12:47:50.214Z,53.54
2023-02-22T12:49:58.371Z,53.61
2023-02-22T12:52:20.954Z,53.56
2023-02-22T12:54:37.840Z,53.19
2023-02-22T12:56:45.904Z,53.43
2023-02-22T12:58:54.966Z,53.30
2023-02-22T13:01:01.734Z,53.21
2023-02-22T13:03:17.986Z,52.37
2023-02-22T13:05:20.845Z,52.40
2023-02-22T13:07:39.242Z,51.64
2023-02-22T13:10:04.411Z,50.91
2023-02-22T13:12:17.430Z,50.53
2023-02-22T13:14:44.451Z,49.54
2023-02-22T13:16:55.279Z,49.39
2023-02-22T13:19:09.893Z,49.39
2023-02-22T13:21:19.951Z,48.88
2023-02-22T13:23:38.944Z,48.23
2023-02-22T13:25:49.939Z,47.32
2023-02-22T13:27:59.946Z,46.15
2023-02-22T13:30:03.885Z,45.74
2023-02-22T13:32:20.209Z,45.52
2023-02-22T13:34:44.848Z,45.28
2023-02-22T13:37:08.494Z,45.22
2023-02-22T13:39:40.953Z,45.39
2023-02-22T13:42:00.389Z,46.32
2023-02-22T13:44:19.766Z,46.83
2023-02-22T13:46:35.562Z,47.99
2023-02-22T13:49:06.502Z,48.27
2023-02-22T13:51:24.147Z,48.85
2023-02-22T13:53:32.868Z,49.78
2023-02-22T13:55:37.617Z,50.16
2023-02-22T13:57:48.134Z,50.79
2023-02-22T14:00:22.786Z,50.83
2023-02-22T14:02:55.288Z,50.77
2023-02-22T14:04:57.922Z,51.25
2023-02-22T14:07:02.962Z,51.35
2023-02-22T14:09:09.411Z,51.13
2023-02-22T14:11:48.620Z,51.20
2023-02-22T14:14:13.027Z,50.87
2023-02-22T14:16:24.550Z,50.90
2023-02-22T14:18:29.044Z,50.77
2023-02-22T14:20:35.207Z,50.41
2023-02-22T14:22:39.419Z,50.35
2023-02-22T14:24:45.302Z,49.98
2023-02-22T14:27:01.302Z,49.79
2023-02-22T14:29:16.997Z,49.20
2023-02-22T14:31:34.817Z,49.57
2023-02-22T14:33:59.577Z,49.51
2023-02-22T14:36:02.516Z,49.86
2023-02-22T14:38:15.644Z,49.98
2023-02-22T14:40:25.762Z,50.14
2023-02-22T14:42:32.952Z,50.07
2023-02-22T14:44:40.538Z,50.33
2023-02-22T14:46:50.101Z,50.75
2023-02-22T14:49:00.551Z,51.32
2023-02-22T14:51:20.261Z,51.96
2023-02-22T14:53:28.370Z,51.69
2023-02-22T14:55:34.482Z,51.78
2023-02-22T14:57:48.379Z,51.45
2023-02-22T15:00:11.881Z,51.86
2023-02-22T15:02:15.526Z,52.14
2023-02-22T15:04:19.776Z,52.07
2023-02-22T15:06:24.590Z,52.35
2023-02-22T15:08:29.187Z,52.61
2023-02-22T15:10:39.789Z,52.58
2023-02-22T15:12:42.419Z,52.70
2023-02-22T15:14:47.715Z,53.13
2023-02-22T15:16:52.993Z,53.17
2023-02-22T15:18:59.176Z,53.79
2023-02-22T15:21:07.175Z,54.01
2023-02-22T15:23:10.145Z,54.25
2023-02-22T15:25:14.658Z,54.65
2023-02-22T15:27:19.498Z,54.81
2023-02-22T15:29:24.646Z,55.05
2023-02-22T15:31:31.348Z,55.52
2023-02-22T15:33:38.096Z,55.40
2023-02-22T15:35:40.761Z,55.93
2023-02-22T15:37:44.668Z,56.25
2023-02-22T15:39:47.226Z,56.21
2023-02-22T15:42:02.242Z,56.46
2023-02-22T15:44:17.854Z,56.90
2023-02-22T15:46:25.238Z,56.88
2023-02-22T15:48:29.584Z,57.11
2023-02-22T15:50:34.033Z,57.03
2023-02-22T15:52:36.667Z,57.38
2023-02-22T15:54:46.601Z,57.40
2023-02-22T15:56:56.305Z,57.60
2023-02-22T15:59:03.724Z,57.55
2023-02-22T16:01:08.852Z,57.64
2023-02-22T16:03:14.321Z,57.68
2023-02-22T16:05:18.387Z,57.64
2023-02-22T16:07:21.319Z,57.87
2023-02-22T16:09:27.268Z,57.87
2023-02-22T16:11:33.399Z,58.12
2023-02-22T16:13:37.486Z,58.36
2023-02-22T16:15:40.267Z,58.33
2023-02-22T16:17:56.046Z,58.38
2023-02-22T16:20:35.413Z,58.29
2023-02-22T16:22:39.593Z,58.52
2023-02-22T16:24:42.420Z,58.63
2023-02-22T16:27:04.444Z,58.53
2023-02-22T16:29:09.706Z,58.32
2023-02-22T16:31:12.442Z,58.70
2023-02-22T16:33:16.585Z,58.92
2023-02-22T16:35:19.482Z,59.04
2023-02-22T16:37:24.846Z,59.27
2023-02-22T16:39:32.101Z,59.63
2023-02-22T16:41:34.803Z,59.66
2023-02-22T16:43:37.828Z,60.02
2023-02-22T16:45:42.475Z,59.81
2023-02-22T16:47:45.571Z,59.74
2023-02-22T16:49:53.716Z,59.61
2023-02-22T16:52:01.107Z,59.66
2023-02-22T16:54:05.202Z,59.57
2023-02-22T16:56:11.646Z,58.78
2023-02-22T16:58:15.828Z,58.84
2023-02-22T17:00:31.034Z,58.73
2023-02-22T17:02:34.289Z,58.80
2023-02-22T17:04:36.899Z,58.55
2023-02-22T17:06:39.500Z,58.82
2023-02-22T17:08:42.676Z,58.91
2023-02-22T17:10:47.300Z,58.87
2023-02-22T17:12:54.121Z,59.03
2023-02-22T17:14:57.117Z,59.37
2023-02-22T17:17:00.160Z,59.07
2023-02-22T17:19:04.979Z,59.01
2023-02-22T17:21:10.544Z,58.76
2023-02-22T17:23:13.480Z,59.01
2023-02-22T17:25:22.432Z,58.92
2023-02-22T17:27:26.450Z,59.04
2023-02-22T17:29:29.852Z,59.01
2023-02-22T17:31:32.858Z,58.96
2023-02-22T17:33:37.608Z,59.18
2023-02-22T17:35:41.046Z,58.95
2023-02-22T17:37:45.760Z,59.02
2023-02-22T17:39:48.317Z,59.05
2023-02-22T17:41:57.479Z,59.27
2023-02-22T17:44:02.254Z,59.21
2023-02-22T17:46:08.047Z,59.19
2023-02-22T17:48:11.069Z,59.47
2023-02-22T17:50:15.378Z,59.27
2023-02-22T17:52:17.974Z,58.71
2023-02-22T17:54:20.597Z,58.95
2023-02-22T17:56:23.210Z,59.13
2023-02-22T17:58:30.885Z,58.59
2023-02-22T18:00:38.819Z,59.25
2023-02-22T18:02:42.205Z,58.72
2023-02-22T18:04:44.795Z,59.32
2023-02-22T18:06:47.557Z,58.93
2023-02-22T18:08:55.832Z,59.30
2023-02-22T18:11:02.034Z,59.66
2023-02-22T18:13:04.755Z,59.63
2023-02-22T18:15:10.784Z,59.85
2023-02-22T18:17:14.652Z,60.11
2023-02-22T18:19:20.408Z,59.67
2023-02-22T18:21:26.747Z,59.75
2023-02-22T18:23:32.250Z,59.53
2023-02-22T18:25:35.496Z,59.90
2023-02-22T18:27:38.392Z,60.23
2023-02-22T18:29:40.991Z,60.54
2023-02-22T18:31:45.360Z,60.29
2023-02-22T18:33:51.040Z,60.34
2023-02-22T18:35:53.614Z,60.28
2023-02-22T18:37:56.294Z,60.40
2023-02-22T18:39:59.584Z,60.49
2023-02-22T18:42:02.160Z,60.32
2023-02-22T18:44:06.431Z,60.36
2023-02-22T18:46:10.000Z,60.57
2023-02-22T18:48:12.582Z,60.45
2023-02-22T18:50:17.449Z,60.83
2023-02-22T18:52:20.087Z,60.89
2023-02-22T18:54:22.719Z,61.41
2023-02-22T18:56:29.654Z,61.38
2023-02-22T18:58:32.817Z,61.47
2023-02-22T19:00:36.271Z,61.30
2023-02-22T19:02:38.851Z,61.42
2023-02-22T19:04:44.040Z,61.33
2023-02-22T19:06:49.730Z,61.59
2023-02-22T19:08:52.460Z,61.60
2023-02-22T19:10:55.058Z,61.97
2023-02-22T19:12:57.650Z,61.86
2023-02-22T19:15:00.410Z,62.23
2023-02-22T19:17:03.190Z,62.69
2023-02-22T19:19:06.226Z,62.86
2023-02-22T19:21:09.528Z,62.60
2023-02-22T19:23:13.478Z,62.96
2023-02-22T19:25:16.174Z,62.77
2023-02-22T19:27:18.787Z,62.69
2023-02-22T19:29:23.472Z,63.20
2023-02-22T19:31:31.592Z,63.10
2023-02-22T19:33:34.301Z,63.10
2023-02-22T19:35:37.249Z,63.25
2023-02-22T19:37:39.843Z,62.91
2023-02-22T19:39:43.821Z,63.01
2023-02-22T19:41:46.911Z,62.63
2023-02-22T19:43:50.981Z,62.70
2023-02-22T19:45:53.570Z,63.14
2023-02-22T19:47:56.481Z,63.38
2023-02-22T19:50:00.267Z,63.42
2023-02-22T19:52:03.809Z,63.64
2023-02-22T19:54:08.417Z,63.81
2023-02-22T19:56:16.063Z,63.98
2023-02-22T19:58:18.669Z,63.77
2023-02-22T20:00:24.755Z,63.78
2023-02-22T20:02:27.545Z,63.45
2023-02-22T20:04:30.478Z,63.46
2023-02-22T20:06:35.720Z,63.87
2023-02-22T20:08:42.268Z,63.71
2023-02-22T20:10:46.457Z,63.62
2023-02-22T20:12:50.346Z,63.72
2023-02-22T20:14:52.898Z,63.98
2023-02-22T20:16:56.734Z,63.44
2023-02-22T20:19:00.119Z,64.06
2023-02-22T20:21:07.500Z,64.28
2023-02-22T20:23:10.215Z,64.12
2023-02-22T20:25:13.614Z,64.26
2023-02-22T20:27:20.114Z,64.16
2023-02-22T20:29:29.442Z,64.50
2023-02-22T20:31:33.087Z,64.39
2023-02-22T20:33:35.948Z,64.72
2023-02-22T20:35:38.614Z,64.36
2023-02-22T20:37:42.620Z,64.26
2023-02-22T20:39:45.194Z,64.67
2023-02-22T20:41:47.860Z,64.43
2023-02-22T20:43:51.180Z,64.60
2023-02-22T20:45:55.132Z,64.82
2023-02-22T20:47:57.759Z,65.04
2023-02-22T20:50:00.357Z,64.69
2023-02-22T20:52:03.007Z,64.95
2023-02-22T20:57:27.028Z,64.90
2023-02-22T20:59:30.298Z,65.11
2023-02-22T21:01:34.482Z,65.24
2023-02-22T21:03:37.213Z,65.16
2023-02-22T21:05:42.780Z,65.25
2023-02-22T21:07:45.307Z,65.38
2023-02-22T21:09:47.838Z,65.54
2023-02-22T21:11:50.599Z,65.67
2023-02-22T21:13:53.615Z,65.26
2023-02-22T21:15:56.176Z,65.20
2023-02-22T21:18:52.435Z,65.56
2023-02-22T21:20:56.326Z,65.34
2023-02-22T21:23:01.815Z,65.57
2023-02-22T21:25:04.679Z,65.43
2023-02-22T21:27:07.252Z,65.32
2023-02-22T21:29:10.716Z,65.31
2023-02-22T21:31:14.428Z,65.37
2023-02-22T21:33:17.338Z,65.52
2023-02-22T21:35:21.327Z,65.61
2023-02-22T21:37:25.201Z,65.56
2023-02-22T21:39:28.961Z,66.10
2023-02-22T21:41:32.180Z,65.83
2023-02-22T21:43:34.708Z,66.05
2023-02-22T21:45:38.346Z,65.82
2023-02-22T21:47:41.495Z,65.90
2023-02-22T21:49:44.400Z,66.16
2023-02-22T21:51:46.940Z,65.57
2023-02-22T21:53:52.981Z,65.33
2023-02-22T21:55:55.526Z,65.86
2023-02-22T21:57:58.079Z,66.14
2023-02-22T22:00:00.630Z,66.14
2023-02-22T22:02:03.709Z,66.24
2023-02-22T22:04:06.728Z,66.28
2023-02-22T22:06:10.880Z,67.03
2023-02-22T22:08:19.429Z,67.06
2023-02-22T22:10:27.601Z,66.92
2023-02-22T22:12:38.743Z,67.42
2023-02-22T22:14:41.865Z,67.40
2023-02-22T22:16:47.783Z,66.98
2023-02-22T22:18:50.352Z,67.05
2023-02-22T22:20:52.894Z,67.01
2023-02-22T22:22:55.432Z,67.41
2023-02-22T22:24:57.981Z,67.19
2023-02-22T22:27:03.727Z,67.34
2023-02-22T22:29:09.888Z,67.27
2023-02-22T22:31:18.038Z,67.22
2023-02-22T22:33:21.098Z,66.68
2023-02-22T22:35:23.623Z,66.86
2023-02-22T22:37:27.932Z,67.74
2023-02-22T22:39:30.762Z,67.59
2023-02-22T22:41:33.840Z,67.68
2023-02-22T22:43:38.441Z,67.77
2023-02-22T22:45:40.989Z,67.55
2023-02-22T22:47:45.898Z,68.34
2023-02-22T22:49:50.244Z,68.26
2023-02-22T22:51:53.419Z,68.45
2023-02-22T22:53:55.974Z,68.33
2023-02-22T22:56:04.281Z,68.65
2023-02-22T22:58:06.819Z,68.58
2023-02-22T23:00:37.432Z,68.79
2023-02-22T23:02:40.561Z,68.27
2023-02-22T23:04:45.146Z,68.63
2023-02-22T23:06:50.621Z,69.07
2023-02-22T23:09:00.005Z,68.95
2023-02-22T23:11:09.084Z,69.14
2023-02-22T23:13:15.576Z,69.21
2023-02-22T23:15:19.628Z,69.02
2023-02-22T23:17:31.203Z,68.79
2023-02-22T23:19:34.775Z,69.33
2023-02-22T23:21:38.350Z,68.82
2023-02-22T23:23:41.179Z,69.18
2023-02-22T23:25:43.726Z,68.83
2023-02-22T23:27:46.739Z,69.14
2023-02-22T23:29:49.549Z,69.09
2023-02-22T23:31:54.461Z,69.38
2023-02-22T23:33:58.882Z,69.07
2023-02-22T23:36:01.444Z,69.01
2023-02-22T23:38:06.868Z,69.03
2023-02-22T23:40:16.914Z,68.89
2023-02-22T23:42:19.778Z,69.24
2023-02-22T23:44:22.437Z,69.00
2023-02-22T23:46:26.928Z,69.13
2023-02-22T23:48:31.012Z,69.40
2023-02-22T23:50:36.294Z,69.57
2023-02-22T23:52:38.861Z,69.38
2023-02-22T23:54:43.844Z,69.25
2023-02-22T23:56:56.117Z,69.10
2023-02-22T23:58:58.672Z,69.05
